Ana Sayfa
METAR-TAF:

METAR-TAF

Havaalanları :

Bleibler Ranch Aerodrome

Clinton, İngiliz Kolombiyası, Kanada

Enlem: 51-15-59N, Boylam: 121-41-05W, yükseklik: 1126 m

Güncel hava durumu gözlemi

Rapor saat 18:02 UTC de 37 dakika önce yapıldı.
Rüzgar batıdan 9 kt ve 15 kt'a kadar ani rüzgarlar
Sıcaklık -5°C
Nem 73%
Basınç 1026 hPa
Görüş mesafesi: 14.5 km
4800 ft yükseklikte çok bulutlu

METAR: CYIN 241802Z AUTO 28009G15KT 9SM OVC048 M05/M09 A3030 RMK SLP311

Saat: 10:39 (18:39 UTC)


TAF: eksik

4.000'den fazla havaalanı için hava durumu gözlemleri ve tahminleri (METAR ve TAF raporları).

Kullanılabilir istasyonlar harita üzerinde sarı ve kırmızı noktalarla gösterilir.

İstasyonun adını görmek için fareyi noktanın üzerinde gezdirin.

Sonrasında hava gözlem ve tahminlerini görmek için tıklayın.

Haritayı değiştirmek için: yaklaştırmak için siyah artı işaretli yeşil düğmeye ve uzaklaştırmak için de eksi işaretli düğmeye hızla tıklayın; bitişik haritalar için yeşil okları kullanın.


METAR-TAF: